sensor_id;sensor_type;location;lat;lon;timestamp;temperature;humidity
9915;DHT22;4996;48.746;9.174;2024-03-02T00:00:04;7.80;99.90
9915;DHT22;4996;48.746;9.174;2024-03-02T00:02:42;7.90;99.90
9915;DHT22;4996;48.746;9.174;2024-03-02T00:05:11;7.80;99.90
9915;DHT22;4996;48.746;9.174;2024-03-02T00:07:37;7.80;99.90
9915;DHT22;4996;48.746;9.174;2024-03-02T00:10:09;7.70;99.90
9915;DHT22;4996;48.746;9.174;2024-03-02T00:12:39;7.80;99.90
9915;DHT22;4996;48.746;9.174;2024-03-02T00:15:18;7.90;99.90
9915;DHT22;4996;48.746;9.174;2024-03-02T00:17:53;7.80;99.90
9915;DHT22;4996;48.746;9.174;2024-03-02T00:20:21;7.90;99.90
9915;DHT22;4996;48.746;9.174;2024-03-02T00:22:47;7.90;99.90
9915;DHT22;4996;48.746;9.174;2024-03-02T00:25:13;7.80;99.90
9915;DHT22;4996;48.746;9.174;2024-03-02T00:27:39;7.70;99.90
9915;DHT22;4996;48.746;9.174;2024-03-02T00:33:22;7.70;99.90
9915;DHT22;4996;48.746;9.174;2024-03-02T00:35:49;7.70;99.90
9915;DHT22;4996;48.746;9.174;2024-03-02T00:38:15;7.70;99.90
9915;DHT22;4996;48.746;9.174;2024-03-02T00:40:44;7.80;99.90
9915;DHT22;4996;48.746;9.174;2024-03-02T00:43:37;7.70;99.90
9915;DHT22;4996;48.746;9.174;2024-03-02T00:46:04;7.70;99.90
9915;DHT22;4996;48.746;9.174;2024-03-02T00:48:30;7.70;99.90
9915;DHT22;4996;48.746;9.174;2024-03-02T00:50:56;7.70;99.90
9915;DHT22;4996;48.746;9.174;2024-03-02T00:53:24;7.70;99.90
9915;DHT22;4996;48.746;9.174;2024-03-02T00:55:52;7.70;99.90
9915;DHT22;4996;48.746;9.174;2024-03-02T00:58:17;7.70;99.90
9915;DHT22;4996;48.746;9.174;2024-03-02T01:00:43;7.60;99.90
9915;DHT22;4996;48.746;9.174;2024-03-02T01:03:08;7.50;99.90
9915;DHT22;4996;48.746;9.174;2024-03-02T01:05:36;7.50;99.90
9915;DHT22;4996;48.746;9.174;2024-03-02T01:08:01;7.60;99.90
9915;DHT22;4996;48.746;9.174;2024-03-02T01:10:27;7.60;99.90
9915;DHT22;4996;48.746;9.174;2024-03-02T01:12:53;7.40;99.90
9915;DHT22;4996;48.746;9.174;2024-03-02T01:15:18;7.40;99.90
9915;DHT22;4996;48.746;9.174;2024-03-02T01:17:44;7.40;99.90
9915;DHT22;4996;48.746;9.174;2024-03-02T01:20:10;7.40;99.90
9915;DHT22;4996;48.746;9.174;2024-03-02T01:22:35;7.40;99.90
9915;DHT22;4996;48.746;9.174;2024-03-02T01:25:01;7.50;99.90
9915;DHT22;4996;48.746;9.174;2024-03-02T01:27:27;7.40;99.90
9915;DHT22;4996;48.746;9.174;2024-03-02T01:29:53;7.40;99.90
9915;DHT22;4996;48.746;9.174;2024-03-02T01:32:20;7.40;99.90
9915;DHT22;4996;48.746;9.174;2024-03-02T01:34:45;7.40;99.90
9915;DHT22;4996;48.746;9.174;2024-03-02T01:37:11;7.30;99.90
9915;DHT22;4996;48.746;9.174;2024-03-02T01:39:37;7.40;99.90
9915;DHT22;4996;48.746;9.174;2024-03-02T01:42:02;7.40;99.90
9915;DHT22;4996;48.746;9.174;2024-03-02T01:44:28;7.40;99.90
9915;DHT22;4996;48.746;9.174;2024-03-02T01:46:53;7.40;99.90
9915;DHT22;4996;48.746;9.174;2024-03-02T01:49:19;7.40;99.90
9915;DHT22;4996;48.746;9.174;2024-03-02T01:51:45;7.40;99.90
9915;DHT22;4996;48.746;9.174;2024-03-02T01:54:10;7.40;99.90
9915;DHT22;4996;48.746;9.174;2024-03-02T01:56:36;7.40;99.90
9915;DHT22;4996;48.746;9.174;2024-03-02T01:59:01;7.30;99.90
9915;DHT22;4996;48.746;9.174;2024-03-02T02:01:27;7.30;99.90
9915;DHT22;4996;48.746;9.174;2024-03-02T02:03:52;7.30;99.90
9915;DHT22;4996;48.746;9.174;2024-03-02T02:06:18;7.30;99.90
9915;DHT22;4996;48.746;9.174;2024-03-02T02:08:44;7.30;99.90
9915;DHT22;4996;48.746;9.174;2024-03-02T02:11:10;7.30;99.90
9915;DHT22;4996;48.746;9.174;2024-03-02T02:13:36;7.30;99.90
9915;DHT22;4996;48.746;9.174;2024-03-02T02:16:08;7.40;99.90
9915;DHT22;4996;48.746;9.174;2024-03-02T02:18:34;7.30;99.90
9915;DHT22;4996;48.746;9.174;2024-03-02T02:21:00;7.20;99.90
9915;DHT22;4996;48.746;9.174;2024-03-02T02:23:26;7.30;99.90
9915;DHT22;4996;48.746;9.174;2024-03-02T02:25:51;7.20;99.90
9915;DHT22;4996;48.746;9.174;2024-03-02T02:28:17;7.10;99.90
9915;DHT22;4996;48.746;9.174;2024-03-02T02:30:42;7.10;99.90
9915;DHT22;4996;48.746;9.174;2024-03-02T02:33:08;7.00;99.90
9915;DHT22;4996;48.746;9.174;2024-03-02T02:35:34;7.00;99.90
9915;DHT22;4996;48.746;9.174;2024-03-02T02:38:00;7.00;99.90
9915;DHT22;4996;48.746;9.174;2024-03-02T02:40:26;6.90;99.90
9915;DHT22;4996;48.746;9.174;2024-03-02T02:42:52;6.80;99.90
9915;DHT22;4996;48.746;9.174;2024-03-02T02:45:17;6.80;99.90
9915;DHT22;4996;48.746;9.174;2024-03-02T02:47:44;6.90;99.90
9915;DHT22;4996;48.746;9.174;2024-03-02T02:50:11;6.80;99.90
9915;DHT22;4996;48.746;9.174;2024-03-02T02:52:39;6.70;99.90
9915;DHT22;4996;48.746;9.174;2024-03-02T02:55:12;6.50;99.90
9915;DHT22;4996;48.746;9.174;2024-03-02T02:57:40;6.60;99.90
9915;DHT22;4996;48.746;9.174;2024-03-02T03:00:09;6.60;99.90
9915;DHT22;4996;48.746;9.174;2024-03-02T03:02:38;6.60;99.90
9915;DHT22;4996;48.746;9.174;2024-03-02T03:05:08;6.50;99.90
9915;DHT22;4996;48.746;9.174;2024-03-02T03:07:34;6.50;99.90
9915;DHT22;4996;48.746;9.174;2024-03-02T03:10:03;6.50;99.90
9915;DHT22;4996;48.746;9.174;2024-03-02T03:12:32;6.50;99.90
9915;DHT22;4996;48.746;9.174;2024-03-02T03:14:58;6.40;99.90
9915;DHT22;4996;48.746;9.174;2024-03-02T03:17:24;6.50;99.90
9915;DHT22;4996;48.746;9.174;2024-03-02T03:19:50;6.50;99.90
9915;DHT22;4996;48.746;9.174;2024-03-02T03:22:16;6.40;99.90
9915;DHT22;4996;48.746;9.174;2024-03-02T03:24:42;6.40;99.90
9915;DHT22;4996;48.746;9.174;2024-03-02T03:27:07;6.50;99.90
9915;DHT22;4996;48.746;9.174;2024-03-02T03:29:36;6.40;99.90
9915;DHT22;4996;48.746;9.174;2024-03-02T03:32:01;6.40;99.90
9915;DHT22;4996;48.746;9.174;2024-03-02T03:34:27;6.40;99.90
9915;DHT22;4996;48.746;9.174;2024-03-02T03:36:54;6.30;99.90
9915;DHT22;4996;48.746;9.174;2024-03-02T03:39:19;6.30;99.90
9915;DHT22;4996;48.746;9.174;2024-03-02T03:41:45;6.30;99.90
9915;DHT22;4996;48.746;9.174;2024-03-02T03:44:11;6.30;99.90
9915;DHT22;4996;48.746;9.174;2024-03-02T03:46:36;6.30;99.90
9915;DHT22;4996;48.746;9.174;2024-03-02T03:49:02;6.30;99.90
9915;DHT22;4996;48.746;9.174;2024-03-02T03:51:29;6.30;99.90
9915;DHT22;4996;48.746;9.174;2024-03-02T03:53:55;6.30;99.90
9915;DHT22;4996;48.746;9.174;2024-03-02T03:56:21;6.30;99.90
9915;DHT22;4996;48.746;9.174;2024-03-02T03:58:46;6.30;99.90
9915;DHT22;4996;48.746;9.174;2024-03-02T04:01:12;6.30;99.90
9915;DHT22;4996;48.746;9.174;2024-03-02T04:03:38;6.30;99.90
9915;DHT22;4996;48.746;9.174;2024-03-02T04:06:04;6.30;99.90
9915;DHT22;4996;48.746;9.174;2024-03-02T04:08:29;6.30;99.90
9915;DHT22;4996;48.746;9.174;2024-03-02T04:10:55;6.30;99.90
9915;DHT22;4996;48.746;9.174;2024-03-02T04:13:21;6.30;99.90
9915;DHT22;4996;48.746;9.174;2024-03-02T04:15:46;6.30;99.90
9915;DHT22;4996;48.746;9.174;2024-03-02T04:18:12;6.30;99.90
9915;DHT22;4996;48.746;9.174;2024-03-02T04:20:37;6.30;99.90
9915;DHT22;4996;48.746;9.174;2024-03-02T04:23:03;6.30;99.90
9915;DHT22;4996;48.746;9.174;2024-03-02T04:25:29;6.20;99.90
9915;DHT22;4996;48.746;9.174;2024-03-02T04:27:54;6.30;99.90
9915;DHT22;4996;48.746;9.174;2024-03-02T04:30:20;6.20;99.90
9915;DHT22;4996;48.746;9.174;2024-03-02T04:32:45;6.30;99.90
9915;DHT22;4996;48.746;9.174;2024-03-02T04:35:14;6.30;99.90
9915;DHT22;4996;48.746;9.174;2024-03-02T04:37:40;6.30;99.90
9915;DHT22;4996;48.746;9.174;2024-03-02T04:40:06;6.30;99.90
9915;DHT22;4996;48.746;9.174;2024-03-02T04:42:35;6.30;99.90
9915;DHT22;4996;48.746;9.174;2024-03-02T04:45:01;6.30;99.90
9915;DHT22;4996;48.746;9.174;2024-03-02T04:47:26;6.20;99.90
9915;DHT22;4996;48.746;9.174;2024-03-02T04:49:52;6.20;99.90
9915;DHT22;4996;48.746;9.174;2024-03-02T04:52:17;6.20;99.90
9915;DHT22;4996;48.746;9.174;2024-03-02T04:54:43;6.30;99.90
9915;DHT22;4996;48.746;9.174;2024-03-02T04:57:27;6.30;99.90
9915;DHT22;4996;48.746;9.174;2024-03-02T04:59:53;6.20;99.90
9915;DHT22;4996;48.746;9.174;2024-03-02T05:02:18;6.20;99.90
9915;DHT22;4996;48.746;9.174;2024-03-02T05:04:44;6.10;99.90
9915;DHT22;4996;48.746;9.174;2024-03-02T05:07:09;6.20;99.90
9915;DHT22;4996;48.746;9.174;2024-03-02T05:09:35;6.10;99.90
9915;DHT22;4996;48.746;9.174;2024-03-02T05:12:01;6.00;99.90
9915;DHT22;4996;48.746;9.174;2024-03-02T05:14:46;6.00;99.90
9915;DHT22;4996;48.746;9.174;2024-03-02T05:17:11;6.00;99.90
9915;DHT22;4996;48.746;9.174;2024-03-02T05:19:37;6.10;99.90
9915;DHT22;4996;48.746;9.174;2024-03-02T05:22:03;6.10;99.90
9915;DHT22;4996;48.746;9.174;2024-03-02T05:24:29;6.10;99.90
9915;DHT22;4996;48.746;9.174;2024-03-02T05:26:54;6.10;99.90
9915;DHT22;4996;48.746;9.174;2024-03-02T05:29:20;6.10;99.90
9915;DHT22;4996;48.746;9.174;2024-03-02T05:31:46;6.10;99.90
9915;DHT22;4996;48.746;9.174;2024-03-02T05:34:11;6.10;99.90
9915;DHT22;4996;48.746;9.174;2024-03-02T05:36:37;6.00;99.90
9915;DHT22;4996;48.746;9.174;2024-03-02T05:39:04;6.10;99.90
9915;DHT22;4996;48.746;9.174;2024-03-02T05:41:31;6.10;99.90
9915;DHT22;4996;48.746;9.174;2024-03-02T05:43:57;6.00;99.90
9915;DHT22;4996;48.746;9.174;2024-03-02T05:46:22;6.00;99.90
9915;DHT22;4996;48.746;9.174;2024-03-02T05:48:48;6.00;99.90
9915;DHT22;4996;48.746;9.174;2024-03-02T05:51:14;5.80;99.90
9915;DHT22;4996;48.746;9.174;2024-03-02T05:53:39;6.00;99.90
9915;DHT22;4996;48.746;9.174;2024-03-02T05:56:05;6.00;99.90
9915;DHT22;4996;48.746;9.174;2024-03-02T05:58:31;6.00;99.90
9915;DHT22;4996;48.746;9.174;2024-03-02T06:01:15;6.00;99.90
9915;DHT22;4996;48.746;9.174;2024-03-02T06:03:43;5.90;99.90
9915;DHT22;4996;48.746;9.174;2024-03-02T06:06:09;5.90;99.90
9915;DHT22;4996;48.746;9.174;2024-03-02T06:08:34;5.90;99.90
9915;DHT22;4996;48.746;9.174;2024-03-02T06:11:00;5.90;99.90
9915;DHT22;4996;48.746;9.174;2024-03-02T06:13:26;5.90;99.90
9915;DHT22;4996;48.746;9.174;2024-03-02T06:15:52;5.90;99.90
9915;DHT22;4996;48.746;9.174;2024-03-02T06:18:18;5.80;99.90
9915;DHT22;4996;48.746;9.174;2024-03-02T06:20:43;5.80;99.90
9915;DHT22;4996;48.746;9.174;2024-03-02T06:23:09;5.80;99.90
9915;DHT22;4996;48.746;9.174;2024-03-02T06:25:34;5.60;99.90
9915;DHT22;4996;48.746;9.174;2024-03-02T06:28:00;5.60;99.90
9915;DHT22;4996;48.746;9.174;2024-03-02T06:30:25;5.80;99.90
9915;DHT22;4996;48.746;9.174;2024-03-02T06:32:51;5.80;99.90
9915;DHT22;4996;48.746;9.174;2024-03-02T06:35:16;5.90;99.90
9915;DHT22;4996;48.746;9.174;2024-03-02T06:37:42;6.00;99.90
9915;DHT22;4996;48.746;9.174;2024-03-02T06:40:08;6.10;99.90
9915;DHT22;4996;48.746;9.174;2024-03-02T06:42:34;6.20;99.90
9915;DHT22;4996;48.746;9.174;2024-03-02T06:45:00;6.20;99.90
9915;DHT22;4996;48.746;9.174;2024-03-02T06:47:26;6.20;99.90
9915;DHT22;4996;48.746;9.174;2024-03-02T06:49:51;6.20;99.90
9915;DHT22;4996;48.746;9.174;2024-03-02T06:52:18;6.30;99.90
9915;DHT22;4996;48.746;9.174;2024-03-02T06:54:44;6.40;99.90
9915;DHT22;4996;48.746;9.174;2024-03-02T06:57:09;6.50;99.90
9915;DHT22;4996;48.746;9.174;2024-03-02T06:59:35;6.50;99.90
9915;DHT22;4996;48.746;9.174;2024-03-02T07:02:01;6.50;99.90
9915;DHT22;4996;48.746;9.174;2024-03-02T07:04:27;6.60;99.90
9915;DHT22;4996;48.746;9.174;2024-03-02T07:06:52;6.70;99.90
9915;DHT22;4996;48.746;9.174;2024-03-02T07:09:18;6.70;99.90
9915;DHT22;4996;48.746;9.174;2024-03-02T07:11:47;6.60;99.90
9915;DHT22;4996;48.746;9.174;2024-03-02T07:14:13;6.70;99.90
9915;DHT22;4996;48.746;9.174;2024-03-02T07:16:39;6.80;99.90
9915;DHT22;4996;48.746;9.174;2024-03-02T07:19:05;6.80;99.90
9915;DHT22;4996;48.746;9.174;2024-03-02T07:21:31;6.90;99.90
9915;DHT22;4996;48.746;9.174;2024-03-02T07:23:58;7.00;99.90
9915;DHT22;4996;48.746;9.174;2024-03-02T07:26:24;7.10;99.90
9915;DHT22;4996;48.746;9.174;2024-03-02T07:28:50;7.20;99.90
9915;DHT22;4996;48.746;9.174;2024-03-02T07:31:16;7.30;99.90
9915;DHT22;4996;48.746;9.174;2024-03-02T07:33:44;7.50;99.90
9915;DHT22;4996;48.746;9.174;2024-03-02T07:36:10;7.70;99.90
9915;DHT22;4996;48.746;9.174;2024-03-02T07:38:36;7.70;99.90
9915;DHT22;4996;48.746;9.174;2024-03-02T07:41:01;7.70;99.90
9915;DHT22;4996;48.746;9.174;2024-03-02T07:43:28;7.90;99.90
9915;DHT22;4996;48.746;9.174;2024-03-02T07:45:53;7.90;99.90
9915;DHT22;4996;48.746;9.174;2024-03-02T07:48:19;7.90;99.90
9915;DHT22;4996;48.746;9.174;2024-03-02T07:50:44;7.80;99.90
9915;DHT22;4996;48.746;9.174;2024-03-02T07:53:10;7.90;99.90
9915;DHT22;4996;48.746;9.174;2024-03-02T07:55:35;7.80;99.90
9915;DHT22;4996;48.746;9.174;2024-03-02T07:58:01;7.70;99.90
9915;DHT22;4996;48.746;9.174;2024-03-02T08:00:27;7.90;99.90
9915;DHT22;4996;48.746;9.174;2024-03-02T08:02:53;7.90;99.90
9915;DHT22;4996;48.746;9.174;2024-03-02T08:05:19;7.80;99.90
9915;DHT22;4996;48.746;9.174;2024-03-02T08:07:45;8.00;99.90
9915;DHT22;4996;48.746;9.174;2024-03-02T08:10:10;8.00;99.90
9915;DHT22;4996;48.746;9.174;2024-03-02T08:12:36;7.90;99.90
9915;DHT22;4996;48.746;9.174;2024-03-02T08:15:02;8.00;99.90
9915;DHT22;4996;48.746;9.174;2024-03-02T08:17:27;8.00;99.90
9915;DHT22;4996;48.746;9.174;2024-03-02T08:19:53;7.90;99.90
9915;DHT22;4996;48.746;9.174;2024-03-02T08:22:19;8.00;99.90
9915;DHT22;4996;48.746;9.174;2024-03-02T08:24:45;8.10;99.90
9915;DHT22;4996;48.746;9.174;2024-03-02T08:27:11;8.20;99.90
9915;DHT22;4996;48.746;9.174;2024-03-02T08:29:37;8.40;99.90
9915;DHT22;4996;48.746;9.174;2024-03-02T08:32:03;8.60;99.90
9915;DHT22;4996;48.746;9.174;2024-03-02T08:34:29;8.70;99.90
9915;DHT22;4996;48.746;9.174;2024-03-02T08:36:54;8.70;99.90
9915;DHT22;4996;48.746;9.174;2024-03-02T08:39:20;8.70;99.90
9915;DHT22;4996;48.746;9.174;2024-03-02T08:41:46;8.90;99.90
9915;DHT22;4996;48.746;9.174;2024-03-02T08:44:12;9.10;99.90
9915;DHT22;4996;48.746;9.174;2024-03-02T08:46:39;9.20;99.90
9915;DHT22;4996;48.746;9.174;2024-03-02T08:49:05;9.30;99.90
9915;DHT22;4996;48.746;9.174;2024-03-02T08:51:30;9.30;99.90
9915;DHT22;4996;48.746;9.174;2024-03-02T08:53:57;9.60;99.90
9915;DHT22;4996;48.746;9.174;2024-03-02T08:56:23;9.90;99.90
9915;DHT22;4996;48.746;9.174;2024-03-02T08:58:52;10.10;99.90
9915;DHT22;4996;48.746;9.174;2024-03-02T09:01:18;10.40;99.90
9915;DHT22;4996;48.746;9.174;2024-03-02T09:03:45;10.50;99.90
9915;DHT22;4996;48.746;9.174;2024-03-02T09:06:12;10.80;99.90
9915;DHT22;4996;48.746;9.174;2024-03-02T09:08:38;11.20;99.90
9915;DHT22;4996;48.746;9.174;2024-03-02T09:11:10;11.20;99.90
9915;DHT22;4996;48.746;9.174;2024-03-02T09:13:36;11.50;99.90
9915;DHT22;4996;48.746;9.174;2024-03-02T09:16:02;11.70;99.90
9915;DHT22;4996;48.746;9.174;2024-03-02T09:18:28;11.80;99.90
9915;DHT22;4996;48.746;9.174;2024-03-02T09:20:53;12.00;99.90
9915;DHT22;4996;48.746;9.174;2024-03-02T09:23:19;12.20;99.90
9915;DHT22;4996;48.746;9.174;2024-03-02T09:25:44;12.50;99.90
9915;DHT22;4996;48.746;9.174;2024-03-02T09:28:10;12.70;99.90
9915;DHT22;4996;48.746;9.174;2024-03-02T09:30:36;12.90;99.90
9915;DHT22;4996;48.746;9.174;2024-03-02T09:33:01;13.00;99.90
9915;DHT22;4996;48.746;9.174;2024-03-02T09:35:27;12.90;99.90
9915;DHT22;4996;48.746;9.174;2024-03-02T09:37:52;12.70;99.90
9915;DHT22;4996;48.746;9.174;2024-03-02T09:40:24;13.20;99.90
9915;DHT22;4996;48.746;9.174;2024-03-02T09:42:51;13.30;99.90
9915;DHT22;4996;48.746;9.174;2024-03-02T09:45:23;13.30;99.90
9915;DHT22;4996;48.746;9.174;2024-03-02T09:47:49;13.30;99.90
9915;DHT22;4996;48.746;9.174;2024-03-02T09:50:15;13.30;99.90
9915;DHT22;4996;48.746;9.174;2024-03-02T09:52:42;13.50;99.90
9915;DHT22;4996;48.746;9.174;2024-03-02T09:55:08;13.70;99.90
9915;DHT22;4996;48.746;9.174;2024-03-02T09:57:34;14.00;99.90
9915;DHT22;4996;48.746;9.174;2024-03-02T09:59:59;13.80;99.90
9915;DHT22;4996;48.746;9.174;2024-03-02T10:02:25;13.80;99.90
9915;DHT22;4996;48.746;9.174;2024-03-02T10:04:51;13.70;99.90
9915;DHT22;4996;48.746;9.174;2024-03-02T10:07:18;13.60;99.90
9915;DHT22;4996;48.746;9.174;2024-03-02T10:09:48;13.80;99.90
9915;DHT22;4996;48.746;9.174;2024-03-02T10:12:15;13.90;99.90
9915;DHT22;4996;48.746;9.174;2024-03-02T10:14:41;13.90;99.90
9915;DHT22;4996;48.746;9.174;2024-03-02T10:17:09;14.00;99.90
9915;DHT22;4996;48.746;9.174;2024-03-02T10:19:35;14.20;99.90
9915;DHT22;4996;48.746;9.174;2024-03-02T10:22:06;14.50;99.90
9915;DHT22;4996;48.746;9.174;2024-03-02T10:24:39;14.90;99.90
9915;DHT22;4996;48.746;9.174;2024-03-02T10:27:11;15.10;99.90
9915;DHT22;4996;48.746;9.174;2024-03-02T10:29:40;15.20;99.90
9915;DHT22;4996;48.746;9.174;2024-03-02T10:32:09;15.20;99.90
9915;DHT22;4996;48.746;9.174;2024-03-02T10:34:37;15.30;99.90
9915;DHT22;4996;48.746;9.174;2024-03-02T10:37:03;15.10;99.90
9915;DHT22;4996;48.746;9.174;2024-03-02T10:39:28;15.10;99.90
9915;DHT22;4996;48.746;9.174;2024-03-02T10:41:56;15.30;99.90
9915;DHT22;4996;48.746;9.174;2024-03-02T10:44:22;15.40;99.90
9915;DHT22;4996;48.746;9.174;2024-03-02T10:46:49;15.20;99.90
9915;DHT22;4996;48.746;9.174;2024-03-02T10:49:16;15.10;99.90
9915;DHT22;4996;48.746;9.174;2024-03-02T10:51:42;15.10;99.90
9915;DHT22;4996;48.746;9.174;2024-03-02T10:54:08;15.00;99.90
9915;DHT22;4996;48.746;9.174;2024-03-02T10:59:22;15.20;99.90
9915;DHT22;4996;48.746;9.174;2024-03-02T11:01:50;15.30;99.90
9915;DHT22;4996;48.746;9.174;2024-03-02T11:04:18;15.30;99.90
9915;DHT22;4996;48.746;9.174;2024-03-02T11:06:50;15.60;99.90
9915;DHT22;4996;48.746;9.174;2024-03-02T11:09:19;16.00;99.90
9915;DHT22;4996;48.746;9.174;2024-03-02T11:11:49;16.50;99.90
9915;DHT22;4996;48.746;9.174;2024-03-02T11:14:21;17.00;99.10
9915;DHT22;4996;48.746;9.174;2024-03-02T11:16:49;17.50;97.70
9915;DHT22;4996;48.746;9.174;2024-03-02T11:19:15;18.10;95.90
9915;DHT22;4996;48.746;9.174;2024-03-02T11:21:41;18.80;94.00
9915;DHT22;4996;48.746;9.174;2024-03-02T11:27:14;18.90;91.70
9915;DHT22;4996;48.746;9.174;2024-03-02T11:30:00;18.80;90.90
9915;DHT22;4996;48.746;9.174;2024-03-02T11:32:25;18.80;91.10
9915;DHT22;4996;48.746;9.174;2024-03-02T11:34:51;19.30;88.80
9915;DHT22;4996;48.746;9.174;2024-03-02T11:37:18;19.90;86.30
9915;DHT22;4996;48.746;9.174;2024-03-02T11:39:46;20.00;84.80
9915;DHT22;4996;48.746;9.174;2024-03-02T11:42:13;20.10;84.20
9915;DHT22;4996;48.746;9.174;2024-03-02T11:44:42;20.30;81.30
9915;DHT22;4996;48.746;9.174;2024-03-02T11:47:10;19.90;81.00
9915;DHT22;4996;48.746;9.174;2024-03-02T11:50:05;20.40;79.20
9915;DHT22;4996;48.746;9.174;2024-03-02T11:52:32;20.90;78.20
9915;DHT22;4996;48.746;9.174;2024-03-02T11:54:58;21.10;76.40
9915;DHT22;4996;48.746;9.174;2024-03-02T11:57:25;21.20;76.60
9915;DHT22;4996;48.746;9.174;2024-03-02T11:59:52;20.90;76.40
9915;DHT22;4996;48.746;9.174;2024-03-02T12:02:21;20.60;73.30
9915;DHT22;4996;48.746;9.174;2024-03-02T12:04:48;20.30;74.10
9915;DHT22;4996;48.746;9.174;2024-03-02T12:07:23;19.90;74.80
9915;DHT22;4996;48.746;9.174;2024-03-02T12:09:59;19.80;74.60
9915;DHT22;4996;48.746;9.174;2024-03-02T12:12:26;19.80;76.00
9915;DHT22;4996;48.746;9.174;2024-03-02T12:14:53;20.30;77.10
9915;DHT22;4996;48.746;9.174;2024-03-02T12:17:21;20.70;74.00
9915;DHT22;4996;48.746;9.174;2024-03-02T12:19:48;20.90;73.70
9915;DHT22;4996;48.746;9.174;2024-03-02T12:22:13;21.20;70.90
9915;DHT22;4996;48.746;9.174;2024-03-02T12:24:39;21.80;72.80
9915;DHT22;4996;48.746;9.174;2024-03-02T12:27:07;22.10;71.80
9915;DHT22;4996;48.746;9.174;2024-03-02T12:29:34;22.20;70.00
9915;DHT22;4996;48.746;9.174;2024-03-02T12:31:59;22.80;69.10
9915;DHT22;4996;48.746;9.174;2024-03-02T12:34:27;22.70;68.70
9915;DHT22;4996;48.746;9.174;2024-03-02T12:36:52;22.00;69.80
9915;DHT22;4996;48.746;9.174;2024-03-02T12:39:21;21.70;70.30
9915;DHT22;4996;48.746;9.174;2024-03-02T12:41:49;21.70;69.80
9915;DHT22;4996;48.746;9.174;2024-03-02T12:44:19;20.80;69.90
9915;DHT22;4996;48.746;9.174;2024-03-02T12:46:46;20.30;70.60
9915;DHT22;4996;48.746;9.174;2024-03-02T12:49:13;19.70;71.80
9915;DHT22;4996;48.746;9.174;2024-03-02T12:51:39;19.50;72.40
9915;DHT22;4996;48.746;9.174;2024-03-02T12:54:09;19.10;71.70
9915;DHT22;4996;48.746;9.174;2024-03-02T12:56:36;18.80;72.10
9915;DHT22;4996;48.746;9.174;2024-03-02T12:59:03;18.80;72.90
9915;DHT22;4996;48.746;9.174;2024-03-02T13:01:29;18.60;73.00
9915;DHT22;4996;48.746;9.174;2024-03-02T13:03:55;18.50;72.30
9915;DHT22;4996;48.746;9.174;2024-03-02T13:06:21;18.00;73.20
9915;DHT22;4996;48.746;9.174;2024-03-02T13:08:46;18.00;74.00
9915;DHT22;4996;48.746;9.174;2024-03-02T13:11:13;18.20;73.90
9915;DHT22;4996;48.746;9.174;2024-03-02T13:13:39;17.90;73.80
9915;DHT22;4996;48.746;9.174;2024-03-02T13:16:12;17.90;73.20
9915;DHT22;4996;48.746;9.174;2024-03-02T13:18:39;17.70;73.60
9915;DHT22;4996;48.746;9.174;2024-03-02T13:21:05;17.50;74.10
9915;DHT22;4996;48.746;9.174;2024-03-02T13:23:30;17.70;74.20
9915;DHT22;4996;48.746;9.174;2024-03-02T13:25:57;17.60;74.70
9915;DHT22;4996;48.746;9.174;2024-03-02T13:28:26;17.50;74.80
9915;DHT22;4996;48.746;9.174;2024-03-02T13:30:52;17.40;74.70
9915;DHT22;4996;48.746;9.174;2024-03-02T13:33:18;17.40;74.80
9915;DHT22;4996;48.746;9.174;2024-03-02T13:35:50;17.60;74.20
9915;DHT22;4996;48.746;9.174;2024-03-02T13:38:19;17.70;74.30
9915;DHT22;4996;48.746;9.174;2024-03-02T13:40:46;17.50;74.60
9915;DHT22;4996;48.746;9.174;2024-03-02T13:43:12;17.50;74.30
9915;DHT22;4996;48.746;9.174;2024-03-02T13:45:38;17.60;74.50
9915;DHT22;4996;48.746;9.174;2024-03-02T13:48:04;17.70;74.90
9915;DHT22;4996;48.746;9.174;2024-03-02T13:50:30;17.40;75.20
9915;DHT22;4996;48.746;9.174;2024-03-02T13:52:56;17.20;75.50
9915;DHT22;4996;48.746;9.174;2024-03-02T13:55:22;17.10;75.40
9915;DHT22;4996;48.746;9.174;2024-03-02T13:57:48;17.30;75.40
9915;DHT22;4996;48.746;9.174;2024-03-02T14:00:16;17.20;74.90
9915;DHT22;4996;48.746;9.174;2024-03-02T14:02:42;17.20;74.40
9915;DHT22;4996;48.746;9.174;2024-03-02T14:05:08;17.20;75.20
9915;DHT22;4996;48.746;9.174;2024-03-02T14:07:37;17.10;74.80
9915;DHT22;4996;48.746;9.174;2024-03-02T14:10:03;17.20;73.90
9915;DHT22;4996;48.746;9.174;2024-03-02T14:12:29;17.10;73.70
9915;DHT22;4996;48.746;9.174;2024-03-02T14:14:54;17.20;73.10
9915;DHT22;4996;48.746;9.174;2024-03-02T14:17:24;17.30;73.40
9915;DHT22;4996;48.746;9.174;2024-03-02T14:19:49;17.20;73.30
9915;DHT22;4996;48.746;9.174;2024-03-02T14:22:15;17.10;73.50
9915;DHT22;4996;48.746;9.174;2024-03-02T14:24:43;17.00;73.90
9915;DHT22;4996;48.746;9.174;2024-03-02T14:27:08;17.10;74.00
9915;DHT22;4996;48.746;9.174;2024-03-02T14:29:34;17.10;74.20
9915;DHT22;4996;48.746;9.174;2024-03-02T14:32:03;16.80;74.60
9915;DHT22;4996;48.746;9.174;2024-03-02T14:34:29;16.80;75.10
9915;DHT22;4996;48.746;9.174;2024-03-02T14:36:54;16.90;74.20
9915;DHT22;4996;48.746;9.174;2024-03-02T14:39:20;16.80;74.30
9915;DHT22;4996;48.746;9.174;2024-03-02T14:41:46;16.90;74.60
9915;DHT22;4996;48.746;9.174;2024-03-02T14:44:11;17.00;73.80
9915;DHT22;4996;48.746;9.174;2024-03-02T14:46:37;16.80;72.40
9915;DHT22;4996;48.746;9.174;2024-03-02T14:49:03;16.60;71.90
9915;DHT22;4996;48.746;9.174;2024-03-02T14:51:29;16.50;71.50
9915;DHT22;4996;48.746;9.174;2024-03-02T14:53:55;16.40;72.20
9915;DHT22;4996;48.746;9.174;2024-03-02T14:56:21;16.40;72.80
9915;DHT22;4996;48.746;9.174;2024-03-02T14:58:46;16.50;72.70
9915;DHT22;4996;48.746;9.174;2024-03-02T15:01:12;16.50;72.00
9915;DHT22;4996;48.746;9.174;2024-03-02T15:03:38;16.40;72.00
9915;DHT22;4996;48.746;9.174;2024-03-02T15:06:04;16.30;71.80
9915;DHT22;4996;48.746;9.174;2024-03-02T15:08:30;16.20;71.20
9915;DHT22;4996;48.746;9.174;2024-03-02T15:10:55;16.30;71.20
9915;DHT22;4996;48.746;9.174;2024-03-02T15:13:22;16.30;71.20
9915;DHT22;4996;48.746;9.174;2024-03-02T15:15:48;16.20;70.90
9915;DHT22;4996;48.746;9.174;2024-03-02T15:18:14;16.00;70.40
9915;DHT22;4996;48.746;9.174;2024-03-02T15:20:40;15.80;71.00
9915;DHT22;4996;48.746;9.174;2024-03-02T15:23:06;15.80;70.50
9915;DHT22;4996;48.746;9.174;2024-03-02T15:25:31;15.60;71.70
9915;DHT22;4996;48.746;9.174;2024-03-02T15:27:57;15.70;72.70
9915;DHT22;4996;48.746;9.174;2024-03-02T15:30:23;15.70;71.50
9915;DHT22;4996;48.746;9.174;2024-03-02T15:32:48;15.70;70.20
9915;DHT22;4996;48.746;9.174;2024-03-02T15:35:14;15.60;70.70
9915;DHT22;4996;48.746;9.174;2024-03-02T15:37:40;15.50;70.30
9915;DHT22;4996;48.746;9.174;2024-03-02T15:40:06;15.30;70.50
9915;DHT22;4996;48.746;9.174;2024-03-02T15:42:33;15.30;70.70
9915;DHT22;4996;48.746;9.174;2024-03-02T15:44:59;15.10;70.90
9915;DHT22;4996;48.746;9.174;2024-03-02T15:47:25;14.90;71.00
9915;DHT22;4996;48.746;9.174;2024-03-02T15:49:51;14.90;70.90
9915;DHT22;4996;48.746;9.174;2024-03-02T15:52:16;14.90;71.40
9915;DHT22;4996;48.746;9.174;2024-03-02T15:54:45;14.80;72.20
9915;DHT22;4996;48.746;9.174;2024-03-02T15:57:10;14.90;73.00
9915;DHT22;4996;48.746;9.174;2024-03-02T15:59:36;14.80;73.60
9915;DHT22;4996;48.746;9.174;2024-03-02T16:02:02;14.60;74.60
9915;DHT22;4996;48.746;9.174;2024-03-02T16:04:29;14.50;76.30
9915;DHT22;4996;48.746;9.174;2024-03-02T16:06:54;14.60;76.90
9915;DHT22;4996;48.746;9.174;2024-03-02T16:09:20;14.60;77.50
9915;DHT22;4996;48.746;9.174;2024-03-02T16:11:45;14.50;78.00
9915;DHT22;4996;48.746;9.174;2024-03-02T16:14:13;14.50;78.40